Terminal Aerodrome Forecast
Issued by NWS

Home | Current Version | Previous Version | Text Only | Print | Product List | Glossary On
Versions: 1 2 3 4 5 6 7 8 9 10 11 12 13 14 15 16 17 18
000
FTUS41 KCLE 012300 AAA
TAFFDY
TAF AMD
KFDY 012330Z 0200/0218 VRB03KT P6SM SCT050
     FM020900 00000KT 5SM BR SCT050
     FM021200 VRB03KT P6SM VCSH SCT060 BKN100
     FM021500 VRB04KT P6SM -SHRA VCTS BKN035CB=

USA.gov is the U.S. government's official web portal to all federal, state and local government web resources and services.